Time;durP1;ratioP1;P1;durP2;ratioP2;P2;SDS_P1;SDS_P2;PMS_P1;PMS_P2;Temp;Humidity;BMP_temperature;BMP_pressure;BME280_temperature;BME280_humidity;BME280_pressure;Samples;Min_cycle;Max_cycle;Signal;HPM_P1;HPM_P2
2021/07/21 00:00:27;;;;;;;9.02;5.90;;;;;;;31.48;39.95;100787.03;143720;628;48008;-66
2021/07/21 00:02:55;;;;;;;9.93;6.05;;;;;;;31.48;37.84;100782.28;143726;582;47004;-66
2021/07/21 00:05:23;;;;;;;7.40;6.70;;;;;;;31.46;37.82;100773.50;143724;632;47002;-66
2021/07/21 00:07:50;;;;;;;8.70;6.95;;;;;;;31.47;36.77;100766.00;143730;620;47004;-68
2021/07/21 00:10:22;;;;;;;8.35;6.45;;;;;;;31.47;37.46;100763.22;143726;592;47008;-67
2021/07/21 00:15:38;;;;;;;9.77;6.82;;;;;;;31.48;36.79;100753.72;143730;657;45929;-68
2021/07/21 00:21:03;;;;;;;7.65;5.90;;;;;;;31.47;37.31;100744.59;143726;668;47006;-67
2021/07/21 00:23:31;;;;;;;7.10;5.53;;;;;;;31.48;36.98;100748.19;143727;669;47004;-68
2021/07/21 00:25:58;;;;;;;10.88;6.68;;;;;;;31.47;36.73;100749.34;143725;566;47002;-67
2021/07/21 00:28:26;;;;;;;7.18;5.50;;;;;;;31.49;36.80;100755.34;143729;569;47002;-68
2021/07/21 00:30:53;;;;;;;6.72;5.82;;;;;;;31.49;37.53;100741.47;143722;653;47010;-67
2021/07/21 00:33:20;;;;;;;8.95;6.65;;;;;;;31.52;35.64;100743.53;143729;568;47004;-69
2021/07/21 00:35:48;;;;;;;8.10;5.53;;;;;;;31.52;35.43;100733.28;143725;573;47006;-68
2021/07/21 00:38:14;;;;;;;11.10;6.18;;;;;;;31.52;35.33;100735.22;143729;590;47004;-67
2021/07/21 00:40:42;;;;;;;6.85;6.07;;;;;;;31.53;35.97;100729.34;143728;575;47010;-65
2021/07/21 00:43:10;;;;;;;6.72;5.93;;;;;;;31.53;36.25;100736.84;143726;611;47002;-65
2021/07/21 00:45:38;;;;;;;9.20;5.53;;;;;;;31.50;35.26;100732.81;143729;584;46002;-66
2021/07/21 00:48:05;;;;;;;13.05;5.75;;;;;;;31.49;35.09;100728.41;143729;591;47004;-66
2021/07/21 00:50:32;;;;;;;11.30;5.35;;;;;;;31.48;34.94;100732.31;143727;626;47010;-69
2021/07/21 00:53:02;;;;;;;8.63;6.10;;;;;;;31.51;34.38;100733.59;143726;573;47004;-68
2021/07/21 00:55:29;;;;;;;6.75;5.28;;;;;;;31.51;33.38;100731.66;143728;602;46002;-69
2021/07/21 00:57:59;;;;;;;9.18;5.82;;;;;;;31.52;33.76;100735.22;143727;577;47005;-65
2021/07/21 01:00:29;;;;;;;8.13;6.10;;;;;;;31.54;33.67;100721.81;143727;570;47008;-67
2021/07/21 01:02:56;;;;;;;7.60;5.03;;;;;;;31.57;33.82;100743.34;143722;604;47014;-67
2021/07/21 01:05:33;;;;;;;9.63;5.95;;;;;;;31.58;33.29;100733.88;143727;637;46004;-68
2021/07/21 01:08:02;;;;;;;6.70;5.35;;;;;;;31.58;32.87;100737.47;143727;574;48006;-68
2021/07/21 01:10:29;;;;;;;8.20;4.50;;;;;;;31.59;33.28;100735.50;143726;597;47008;-66
2021/07/21 01:13:19;;;;;;;6.95;5.85;;;;;;;31.58;34.46;100728.31;143725;624;47005;-67
2021/07/21 01:16:00;;;;;;;6.85;4.68;;;;;;;31.59;33.78;100732.72;143726;641;46004;-67
2021/07/21 01:18:38;;;;;;;8.15;5.10;;;;;;;31.57;32.74;100724.75;143731;622;47004;-66
2021/07/21 01:22:14;;;;;;;6.57;4.90;;;;;;;31.58;33.20;100734.69;143726;577;47027;-66
2021/07/21 01:25:17;;;;;;;6.40;5.32;;;;;;;31.61;33.96;100730.41;143725;615;47002;-68
2021/07/21 01:27:52;;;;;;;9.52;5.30;;;;;;;31.64;33.42;100718.63;143725;623;46004;-66
2021/07/21 01:30:28;;;;;;;7.60;4.90;;;;;;;31.66;33.17;100721.03;143729;610;47004;-66
2021/07/21 01:33:04;;;;;;;7.93;5.22;;;;;;;31.65;33.31;100714.69;143725;667;47010;-66
2021/07/21 01:35:37;;;;;;;9.02;5.20;;;;;;;31.64;33.23;100712.25;143726;642;47002;-69
2021/07/21 01:38:09;;;;;;;7.25;4.90;;;;;;;31.65;33.90;100714.69;143725;590;47002;-67
2021/07/21 01:40:47;;;;;;;6.60;5.18;;;;;;;31.66;33.73;100715.50;143729;601;47004;-67
2021/07/21 01:43:30;;;;;;;5.72;4.97;;;;;;;31.67;33.67;100715.16;143725;586;48012;-66
2021/07/21 01:46:05;;;;;;;10.05;5.20;;;;;;;31.69;32.55;100720.38;143725;681;47004;-67
2021/07/21 01:48:37;;;;;;;7.12;4.93;;;;;;;31.71;33.49;100718.09;143727;576;45929;-67
2021/07/21 01:51:09;;;;;;;6.80;5.50;;;;;;;31.70;33.77;100714.50;143729;579;47006;-67
2021/07/21 01:53:38;;;;;;;6.68;4.70;;;;;;;31.71;34.10;100718.09;143726;580;47010;-67
2021/07/21 01:56:08;;;;;;;7.32;5.70;;;;;;;31.71;33.93;100723.66;143727;618;47008;-67
2021/07/21 01:58:39;;;;;;;10.10;5.07;;;;;;;31.75;33.55;100722.59;143725;579;48004;-67
2021/07/21 02:01:10;;;;;;;5.95;4.90;;;;;;;31.80;33.59;100723.53;143731;608;46002;-67
2021/07/21 02:03:41;;;;;;;6.03;4.93;;;;;;;31.85;33.94;100720.56;143723;574;47008;-68
2021/07/21 02:06:09;;;;;;;7.90;5.32;;;;;;;31.84;35.88;100728.06;143725;618;47004;-67
2021/07/21 02:08:37;;;;;;;7.22;5.82;;;;;;;31.79;36.78;100742.16;143727;667;46004;-68
2021/07/21 02:11:05;;;;;;;12.15;6.00;;;;;;;31.77;38.66;100741.72;143727;566;47002;-67
2021/07/21 02:13:34;;;;;;;11.10;6.12;;;;;;;31.73;39.04;100738.00;143721;580;49005;-67
2021/07/21 02:16:04;;;;;;;8.05;6.62;;;;;;;31.69;39.75;100740.59;143728;612;47009;-67
2021/07/21 02:18:33;;;;;;;8.25;7.15;;;;;;;31.69;38.61;100746.16;143728;574;45925;-67
2021/07/21 02:21:05;;;;;;;8.40;7.07;;;;;;;31.68;38.36;100740.94;143728;576;47005;-66
2021/07/21 02:23:34;;;;;;;6.40;5.80;;;;;;;31.70;36.85;100742.25;143726;614;47010;-65
2021/07/21 02:26:02;;;;;;;8.10;6.12;;;;;;;31.75;36.59;100747.59;143726;601;47006;-66
2021/07/21 02:28:30;;;;;;;8.55;6.35;;;;;;;31.77;36.58;100747.28;143720;598;48013;-67
2021/07/21 02:31:00;;;;;;;7.32;5.80;;;;;;;31.80;35.75;100756.88;143728;615;47004;-66
2021/07/21 02:33:38;;;;;;;10.52;5.95;;;;;;;31.79;36.70;100758.81;143727;601;47004;-67
2021/07/21 02:36:06;;;;;;;8.20;6.62;;;;;;;31.79;37.31;100761.59;143726;602;47002;-67
2021/07/21 02:38:33;;;;;;;7.47;6.75;;;;;;;31.79;37.17;100769.13;143728;649;47004;-67
2021/07/21 02:41:01;;;;;;;9.65;6.25;;;;;;;31.79;37.03;100771.91;143726;575;49004;-68
2021/07/21 02:43:28;;;;;;;9.73;6.60;;;;;;;31.81;36.91;100775.16;143723;589;49002;-67
2021/07/21 02:45:55;;;;;;;11.32;6.62;;;;;;;31.77;36.37;100780.59;143725;579;47004;-66
2021/07/21 02:48:22;;;;;;;7.43;6.70;;;;;;;31.78;36.06;100782.19;143726;655;46004;-68
2021/07/21 02:50:56;;;;;;;7.85;6.50;;;;;;;31.77;35.57;100782.53;143729;646;47002;-67
2021/07/21 02:53:33;;;;;;;10.60;6.57;;;;;;;31.77;35.57;100779.78;143726;569;47010;-66
2021/07/21 02:56:06;;;;;;;8.20;6.37;;;;;;;31.75;35.03;100788.47;143727;636;47005;-67
2021/07/21 02:58:49;;;;;;;7.82;5.90;;;;;;;31.77;35.07;100790.88;143723;629;49002;-68
2021/07/21 03:01:21;;;;;;;7.20;6.10;;;;;;;31.75;34.75;100799.56;143729;657;45018;-66
2021/07/21 03:03:50;;;;;;;7.40;5.87;;;;;;;31.71;34.68;100790.28;143716;577;50004;-68
2021/07/21 03:06:19;;;;;;;6.62;6.00;;;;;;;31.69;34.63;100798.12;143726;668;47004;-68
2021/07/21 03:08:49;;;;;;;10.63;5.90;;;;;;;31.66;34.60;100802.41;143723;669;47930;-68
2021/07/21 03:11:17;;;;;;;7.87;6.32;;;;;;;31.60;34.92;100809.28;143728;575;47002;-67
2021/07/21 03:13:54;;;;;;;7.85;5.57;;;;;;;31.57;34.86;100805.25;143725;574;46010;-68
2021/07/21 03:16:28;;;;;;;7.32;5.85;;;;;;;31.56;34.33;100802.78;143724;614;47004;-68
2021/07/21 03:19:00;;;;;;;5.57;4.97;;;;;;;31.59;34.07;100813.22;143721;568;48013;-66
2021/07/21 03:21:29;;;;;;;7.20;6.00;;;;;;;31.60;33.58;100820.41;143728;644;46576;-66
2021/07/21 03:23:57;;;;;;;12.27;6.37;;;;;;;31.60;33.78;100825.94;143725;584;47010;-67
2021/07/21 03:26:25;;;;;;;8.80;5.87;;;;;;;31.57;34.17;100838.56;143725;575;47008;-68
2021/07/21 03:28:54;;;;;;;8.70;5.95;;;;;;;31.51;33.23;100834.34;143726;605;45931;-67
2021/07/21 03:31:21;;;;;;;7.70;5.68;;;;;;;31.50;33.40;100845.81;143729;638;46006;-66
2021/07/21 03:34:05;;;;;;;8.07;5.47;;;;;;;31.51;33.63;100851.00;143723;576;48010;-66
2021/07/21 03:36:37;;;;;;;7.18;6.07;;;;;;;31.50;33.26;100840.25;143694;635;49002;-69
2021/07/21 03:39:06;;;;;;;7.80;5.32;;;;;;;31.53;33.65;100850.66;143726;625;46006;-68
2021/07/21 03:41:35;;;;;;;8.70;5.85;;;;;;;31.50;33.36;100854.13;143726;583;48005;-69
2021/07/21 03:44:04;;;;;;;7.87;6.12;;;;;;;31.49;34.04;100858.84;143726;577;46010;-67
2021/07/21 03:46:33;;;;;;;7.00;5.55;;;;;;;31.46;34.11;100862.31;143724;626;47004;-68
2021/07/21 03:49:00;;;;;;;6.87;5.40;;;;;;;31.42;34.22;100866.91;143723;567;47004;-66
2021/07/21 03:51:32;;;;;;;9.63;6.10;;;;;;;31.39;34.47;100864.81;143727;574;47004;-66
2021/07/21 03:54:00;;;;;;;6.53;5.68;;;;;;;31.37;33.36;100869.91;143724;649;47008;-68
2021/07/21 03:56:29;;;;;;;7.75;5.50;;;;;;;31.38;33.19;100875.09;143726;581;47004;-67
2021/07/21 03:58:56;;;;;;;6.65;5.32;;;;;;;31.34;33.10;100876.91;143721;629;48002;-68
2021/07/21 04:01:25;;;;;;;11.40;5.57;;;;;;;31.34;32.84;100881.66;143728;601;47002;-68
2021/07/21 04:03:53;;;;;;;9.88;5.93;;;;;;;31.30;32.54;100882.34;143721;567;49012;-67
2021/07/21 04:06:21;;;;;;;7.18;4.87;;;;;;;31.26;32.80;100883.34;143723;572;47002;-67
2021/07/21 04:08:51;;;;;;;5.87;4.95;;;;;;;31.20;32.54;100879.97;143717;603;48006;-67
2021/07/21 04:11:18;;;;;;;7.55;5.20;;;;;;;31.23;32.14;100884.84;143727;591;47004;-67
2021/07/21 04:13:49;;;;;;;9.10;5.50;;;;;;;31.22;32.32;100883.22;143723;669;48008;-67
2021/07/21 04:16:17;;;;;;;8.45;5.55;;;;;;;31.22;32.55;100876.84;143725;590;47004;-66
2021/07/21 04:18:46;;;;;;;6.72;5.32;;;;;;;31.20;32.22;100881.91;143725;613;45925;-68
2021/07/21 04:21:15;;;;;;;7.32;5.32;;;;;;;31.13;32.17;100879.62;143726;572;47002;-66
2021/07/21 04:23:43;;;;;;;5.65;4.78;;;;;;;31.15;32.46;100882.91;143722;595;47010;-67
2021/07/21 04:26:12;;;;;;;12.15;5.35;;;;;;;31.15;32.15;100882.91;143725;593;47004;-69
2021/07/21 04:28:40;;;;;;;6.47;5.12;;;;;;;31.16;32.33;100887.31;143727;590;45925;-66
2021/07/21 04:31:07;;;;;;;7.60;4.87;;;;;;;31.18;31.14;100885.03;143727;573;47002;-65
2021/07/21 04:33:36;;;;;;;7.12;5.43;;;;;;;31.20;31.32;100887.47;143725;631;47010;-65
2021/07/21 04:36:04;;;;;;;7.65;5.15;;;;;;;31.20;31.34;100879.12;143722;621;47002;-68
2021/07/21 04:38:32;;;;;;;5.85;4.75;;;;;;;31.22;31.41;100883.22;143719;651;48004;-66
2021/07/21 04:40:59;;;;;;;6.35;4.85;;;;;;;31.28;30.95;100879.09;143726;622;47002;-65
2021/07/21 04:43:26;;;;;;;5.20;4.70;;;;;;;31.35;30.86;100881.31;143724;604;47010;-67
2021/07/21 04:45:54;;;;;;;5.32;4.80;;;;;;;31.42;30.89;100878.00;143725;583;47004;-68
2021/07/21 04:48:21;;;;;;;7.50;5.57;;;;;;;31.45;31.24;100878.16;143724;673;46005;-65
2021/07/21 04:50:51;;;;;;;5.20;4.70;;;;;;;31.48;31.55;100887.78;143728;595;47002;-66
2021/07/21 04:53:19;;;;;;;7.50;5.03;;;;;;;31.53;31.78;100883.97;143726;572;46032;-67
2021/07/21 04:55:47;;;;;;;5.85;5.25;;;;;;;31.54;31.41;100899.47;143725;573;47004;-67
2021/07/21 04:58:16;;;;;;;8.07;5.37;;;;;;;31.58;31.82;100881.84;143721;713;47002;-67
2021/07/21 05:00:42;;;;;;;8.80;5.20;;;;;;;31.57;31.66;100893.25;143725;594;47996;-66
2021/07/21 05:03:11;;;;;;;7.50;4.72;;;;;;;31.61;32.07;100891.44;143722;680;48011;-66
2021/07/21 05:05:38;;;;;;;6.00;5.40;;;;;;;31.61;31.91;100897.00;143722;582;49002;-68
2021/07/21 05:08:06;;;;;;;7.15;5.62;;;;;;;31.63;32.11;100914.13;143723;685;47008;-69
2021/07/21 05:10:34;;;;;;;6.10;5.50;;;;;;;31.67;31.92;100895.66;143726;589;47012;-66
2021/07/21 05:13:02;;;;;;;5.68;5.18;;;;;;;31.65;32.30;100905.44;143725;572;47004;-68
2021/07/21 05:15:31;;;;;;;8.40;5.43;;;;;;;31.59;32.57;100905.63;143722;638;49002;-66
2021/07/21 05:17:58;;;;;;;10.80;5.10;;;;;;;31.61;32.69;100911.66;143727;658;45931;-66
2021/07/21 05:20:25;;;;;;;10.02;5.62;;;;;;;31.59;32.90;100915.94;143727;581;47004;-65
2021/07/21 05:22:52;;;;;;;7.65;5.10;;;;;;;31.60;32.72;100920.34;143724;623;47020;-67
2021/07/21 05:25:19;;;;;;;6.72;4.82;;;;;;;31.65;33.13;100913.78;143725;607;47004;-66
2021/07/21 05:27:47;;;;;;;7.10;6.15;;;;;;;31.66;33.43;100916.22;143725;597;45933;-67
2021/07/21 05:30:15;;;;;;;8.30;5.90;;;;;;;31.69;33.77;100932.19;143728;583;47002;-68
2021/07/21 05:32:43;;;;;;;7.25;5.18;;;;;;;31.69;33.38;100920.28;143723;596;48929;-67
2021/07/21 05:35:10;;;;;;;8.63;5.30;;;;;;;31.66;33.42;100923.72;143722;627;47002;-67
2021/07/21 05:37:38;;;;;;;6.40;5.53;;;;;;;31.67;33.31;100936.47;143723;588;49006;-67
2021/07/21 08:55:41;;;;;;;12.05;8.00;;;;;;;33.95;26.18;101025.03;143720;682;48010;-69
2021/07/21 08:58:08;;;;;;;10.90;8.85;;;;;;;34.04;26.00;101016.53;143726;567;45924;-68
2021/07/21 09:00:36;;;;;;;15.10;8.55;;;;;;;34.09;26.18;101013.47;143723;574;49002;-70
2021/07/21 09:03:03;;;;;;;10.95;8.80;;;;;;;34.17;25.97;101023.69;143724;583;47013;-67
2021/07/21 09:05:30;;;;;;;10.93;8.07;;;;;;;34.29;25.69;101020.84;143726;593;47002;-68
2021/07/21 09:07:57;;;;;;;11.50;7.93;;;;;;;34.35;25.46;101015.81;143720;585;48006;-68
2021/07/21 09:10:24;;;;;;;13.62;8.68;;;;;;;34.36;25.25;101013.88;143724;595;48002;-68
2021/07/21 09:12:52;;;;;;;11.98;8.60;;;;;;;34.42;25.22;101016.06;143725;591;47020;-68
2021/07/21 09:15:23;;;;;;;10.35;8.20;;;;;;;34.50;25.83;101010.69;143723;583;46019;-67
2021/07/21 09:18:22;;;;;;;12.55;8.23;;;;;;;34.61;25.15;101022.97;143725;641;46012;-68
2021/07/21 09:21:09;;;;;;;16.87;8.73;;;;;;;34.73;24.97;101019.28;143728;633;47002;-69
2021/07/21 09:24:01;;;;;;;9.23;8.27;;;;;;;34.78;24.21;101007.84;143723;573;48010;-70
2021/07/21 09:26:38;;;;;;;10.63;8.90;;;;;;;34.84;24.47;101008.41;143726;646;47004;-68
2021/07/21 09:29:06;;;;;;;10.52;8.05;;;;;;;34.85;24.41;101002.47;143720;657;46002;-68
2021/07/21 09:31:43;;;;;;;11.25;7.93;;;;;;;34.89;24.26;100999.75;143727;594;47006;-69
2021/07/21 09:34:23;;;;;;;9.82;8.80;;;;;;;34.90;23.90;101002.22;143719;567;50002;-70
2021/07/21 09:37:07;;;;;;;11.50;8.25;;;;;;;34.91;23.18;100989.87;143726;625;47006;-69
2021/07/21 09:39:39;;;;;;;11.45;8.32;;;;;;;34.98;24.37;100988.44;143721;575;49576;-68
2021/07/21 09:42:07;;;;;;;9.50;7.72;;;;;;;35.01;24.07;100991.34;143727;573;47004;-68
2021/07/21 09:44:40;;;;;;;9.15;8.10;;;;;;;35.03;23.54;100994.59;143721;624;48010;-69
2021/07/21 09:47:20;;;;;;;10.03;8.07;;;;;;;35.07;24.37;100989.09;143726;590;47004;-69
2021/07/21 09:49:48;;;;;;;9.70;8.55;;;;;;;35.16;24.49;100986.91;143723;635;47000;-69
2021/07/21 09:52:22;;;;;;;8.93;8.02;;;;;;;35.25;24.17;100986.72;143726;568;47004;-68
2021/07/21 09:55:12;;;;;;;10.50;8.43;;;;;;;35.30;24.42;100980.09;143725;602;47013;-68
2021/07/21 09:57:40;;;;;;;10.25;8.65;;;;;;;35.33;24.21;100974.56;143718;566;49002;-67
2021/07/21 10:00:24;;;;;;;12.20;9.45;;;;;;;35.40;24.75;100975.91;143726;583;47004;-69
2021/07/21 10:03:05;;;;;;;11.20;10.02;;;;;;;35.40;24.00;100967.50;143720;581;49002;-70
2021/07/21 10:05:32;;;;;;;10.35;9.23;;;;;;;35.38;25.00;100970.69;143724;648;47010;-67
2021/07/21 10:08:02;;;;;;;15.27;12.80;;;;;;;35.46;24.44;100969.72;143720;587;48004;-67
2021/07/21 10:10:32;;;;;;;35.10;24.40;;;;;;;35.42;24.77;100977.16;143724;573;46925;-70
2021/07/21 10:13:07;;;;;;;43.00;32.40;;;;;;;35.38;23.77;100970.69;143727;614;47002;-67
2021/07/21 10:15:34;;;;;;;51.85;31.42;;;;;;;35.40;23.86;100965.53;143726;581;47012;-68
2021/07/21 10:18:23;;;;;;;91.37;58.40;;;;;;;35.45;23.84;100964.47;143723;592;47004;-69
2021/07/21 10:20:50;;;;;;;59.92;54.20;;;;;;;35.50;23.34;100962.22;143726;586;45930;-70
2021/07/21 10:23:19;;;;;;;23.23;11.43;;;;;;;35.52;23.19;100961.84;143727;585;47011;-68
2021/07/21 10:25:46;;;;;;;12.68;9.52;;;;;;;35.53;23.00;100957.91;143728;598;46012;-69
2021/07/21 10:28:13;;;;;;;11.73;8.13;;;;;;;35.58;22.41;100956.78;143723;581;47004;-68
2021/07/21 10:30:41;;;;;;;20.67;9.10;;;;;;;35.59;22.33;100953.62;143727;617;46002;-69
2021/07/21 10:33:09;;;;;;;13.10;9.93;;;;;;;35.67;23.87;100954.59;143720;569;47008;-69
2021/07/21 10:35:37;;;;;;;25.70;10.75;;;;;;;35.69;24.29;100948.66;143726;592;47010;-70
2021/07/21 10:38:04;;;;;;;18.37;10.43;;;;;;;35.78;24.23;100944.47;143723;575;47993;-70
2021/07/21 10:40:32;;;;;;;19.27;12.02;;;;;;;35.83;23.47;100942.56;143726;567;46004;-69
2021/07/21 10:43:00;;;;;;;26.48;13.50;;;;;;;35.83;22.79;100946.16;143730;611;46006;-69
2021/07/21 10:45:33;;;;;;;29.42;13.27;;;;;;;35.87;22.95;100935.88;143726;582;47006;-69
2021/07/21 10:48:27;;;;;;;15.60;10.40;;;;;;;35.88;22.84;100931.06;143725;700;48004;-70
2021/07/21 10:51:13;;;;;;;67.80;15.95;;;;;;;35.93;22.75;100928.78;143726;645;45925;-70
2021/07/21 10:54:02;;;;;;;13.00;9.32;;;;;;;35.97;22.30;100928.91;143727;580;47004;-69
2021/07/21 10:59:17;;;;;;;15.07;8.90;;;;;;;35.99;22.62;100920.97;143725;574;47010;-69
2021/07/21 11:02:01;;;;;;;11.00;9.50;;;;;;;35.99;22.06;100925.72;143727;591;46004;-69
2021/07/21 11:04:46;;;;;;;9.38;8.20;;;;;;;36.04;22.03;100919.84;143729;588;47004;-69
2021/07/21 11:07:14;;;;;;;10.25;8.90;;;;;;;36.09;22.76;100920.34;143725;579;47012;-68
2021/07/21 11:09:49;;;;;;;9.60;8.70;;;;;;;36.14;22.07;100910.06;143719;589;48011;-70
2021/07/21 11:12:33;;;;;;;9.00;8.13;;;;;;;36.13;23.86;100902.84;143728;594;45924;-67
2021/07/21 11:15:00;;;;;;;9.98;8.57;;;;;;;36.16;23.56;100902.13;143727;587;49002;-69
2021/07/21 11:17:27;;;;;;;11.20;7.32;;;;;;;36.16;22.42;100902.13;143727;589;47010;-68
2021/07/21 11:19:55;;;;;;;12.15;8.10;;;;;;;36.21;23.06;100908.19;143726;572;46994;-68
2021/07/21 11:22:29;;;;;;;13.80;9.25;;;;;;;36.16;21.83;100897.31;143728;605;45930;-69
2021/07/21 11:25:24;;;;;;;14.02;9.52;;;;;;;36.16;21.55;100885.34;143730;587;47004;-70
2021/07/21 11:28:04;;;;;;;37.35;24.80;;;;;;;36.15;22.64;100892.91;143729;618;46008;-69
2021/07/21 11:30:47;;;;;;;47.92;28.20;;;;;;;36.15;22.89;100883.72;143724;599;47002;-69
2021/07/21 11:34:01;;;;;;;47.22;30.35;;;;;;;36.15;23.09;100878.91;143726;590;46004;-67
2021/07/21 11:36:47;;;;;;;76.10;54.50;;;;;;;36.20;22.06;100877.78;143729;617;47002;-67
2021/07/21 11:39:42;;;;;;;45.25;38.95;;;;;;;36.22;21.96;100881.84;143719;586;48008;-67
2021/07/21 11:42:29;;;;;;;11.12;9.98;;;;;;;36.24;23.20;100876.72;143726;569;47004;-67
2021/07/21 11:45:25;;;;;;;10.15;8.60;;;;;;;36.19;21.68;100874.22;143726;604;46006;-69
2021/07/21 11:48:00;;;;;;;8.98;7.75;;;;;;;36.17;21.97;100872.97;143729;608;47002;-70
2021/07/21 11:50:31;;;;;;;7.82;6.87;;;;;;;36.17;21.32;100864.59;143725;572;47010;-69
2021/07/21 11:53:03;;;;;;;9.05;8.15;;;;;;;36.13;21.45;100864.50;143728;646;47004;-68
2021/07/21 11:55:36;;;;;;;10.70;7.80;;;;;;;36.11;21.18;100862.09;143715;589;49011;-68
2021/07/21 11:58:12;;;;;;;;;;;;;;;36.09;21.23;100866.44;143733;985;47002;-70
2021/07/21 12:00:40;;;;;;;8.40;6.87;;;;;;;36.13;21.58;100866.50;143725;634;48012;-67
2021/07/21 12:03:08;;;;;;;8.45;6.80;;;;;;;36.07;20.61;100871.59;143726;637;47004;-69
2021/07/21 12:05:35;;;;;;;10.13;7.50;;;;;;;36.05;20.60;100873.94;143728;566;46002;-70
2021/07/21 12:08:05;;;;;;;9.02;7.25;;;;;;;36.04;20.73;100875.13;143729;707;47004;-70
2021/07/21 12:10:35;;;;;;;9.50;7.45;;;;;;;36.03;20.81;100870.72;143727;589;47012;-69
2021/07/21 12:13:09;;;;;;;9.10;7.22;;;;;;;36.02;20.49;100872.69;143727;636;47002;-69
2021/07/21 12:15:37;;;;;;;8.52;7.65;;;;;;;35.98;21.00;100871.81;143729;585;45931;-68
2021/07/21 12:18:15;;;;;;;11.02;7.97;;;;;;;35.97;21.23;100878.59;143730;580;47002;-67
2021/07/21 12:20:44;;;;;;;9.88;7.87;;;;;;;35.98;21.11;100874.63;143724;572;47010;-69
2021/07/21 12:23:13;;;;;;;10.60;7.05;;;;;;;35.94;20.90;100871.72;143726;620;47010;-69
2021/07/21 12:25:40;;;;;;;9.35;7.57;;;;;;;35.93;20.54;100866.50;143723;582;46006;-69
2021/07/21 12:28:09;;;;;;;8.73;7.70;;;;;;;35.93;21.14;100858.91;143731;581;47002;-70
2021/07/21 12:30:37;;;;;;;10.05;7.50;;;;;;;35.95;20.99;100862.19;143723;592;48004;-68
2021/07/21 12:33:05;;;;;;;9.40;7.47;;;;;;;35.93;22.10;100858.91;143727;607;47004;-67
2021/07/21 12:35:32;;;;;;;9.00;7.45;;;;;;;35.95;21.23;100861.38;143726;592;48002;-69
2021/07/21 12:38:00;;;;;;;6.82;6.22;;;;;;;35.93;20.91;100856.12;143728;573;47004;-68
2021/07/21 12:40:31;;;;;;;9.48;6.80;;;;;;;35.94;21.38;100859.72;143727;715;46012;-68
2021/07/21 12:43:00;;;;;;;8.20;6.90;;;;;;;35.91;20.57;100850.13;143728;611;46010;-68
2021/07/21 12:45:32;;;;;;;10.02;6.85;;;;;;;35.87;21.18;100851.19;143723;605;47007;-69
2021/07/21 12:47:59;;;;;;;8.98;6.75;;;;;;;35.86;21.46;100853.19;143727;567;47004;-68
2021/07/21 12:50:34;;;;;;;9.82;7.82;;;;;;;35.83;21.67;100848.34;143725;590;47010;-68
2021/07/21 12:53:07;;;;;;;7.65;6.50;;;;;;;35.84;21.65;100844.38;143726;575;47002;-68
2021/07/21 12:55:42;;;;;;;7.40;6.67;;;;;;;35.81;21.40;100842.31;143727;583;46008;-69
2021/07/21 12:58:11;;;;;;;8.35;7.10;;;;;;;35.79;21.77;100839.91;143728;573;47002;-68
2021/07/21 13:00:49;;;;;;;8.82;6.72;;;;;;;35.78;20.84;100837.47;143723;600;49002;-68
2021/07/21 13:03:21;;;;;;;8.50;7.60;;;;;;;35.77;20.84;100839.47;143728;594;46016;-68
2021/07/21 13:06:01;;;;;;;7.25;6.55;;;;;;;35.74;21.67;100837.41;143726;638;48002;-68
2021/07/21 13:08:37;;;;;;;8.00;6.00;;;;;;;35.74;21.88;100836.59;143727;572;47004;-69
2021/07/21 13:11:12;;;;;;;7.07;6.47;;;;;;;35.75;22.06;100832.59;143725;580;47027;-69
2021/07/21 13:13:41;;;;;;;9.93;6.32;;;;;;;35.71;21.61;100829.75;143727;597;47015;-66
2021/07/21 13:16:14;;;;;;;11.15;6.62;;;;;;;35.69;21.86;100832.09;143725;607;47006;-66
2021/07/21 13:18:47;;;;;;;8.15;6.37;;;;;;;35.70;21.97;100824.53;143730;590;46006;-68
2021/07/21 13:21:32;;;;;;;7.28;6.50;;;;;;;35.65;21.96;100826.44;143730;637;46008;-70
2021/07/21 13:24:07;;;;;;;8.23;6.32;;;;;;;35.68;21.72;100827.69;143725;599;47006;-70
2021/07/21 13:26:35;;;;;;;8.35;6.60;;;;;;;35.71;21.09;100826.16;143719;633;51010;-70
2021/07/21 13:29:10;;;;;;;7.35;6.10;;;;;;;35.71;21.53;100821.38;143729;586;47004;-67
2021/07/21 13:31:39;;;;;;;8.65;6.75;;;;;;;35.70;22.55;100821.75;143719;590;48010;-70
2021/07/21 13:34:33;;;;;;;7.95;6.45;;;;;;;35.70;22.65;100821.75;143726;612;47004;-70
2021/07/21 13:37:03;;;;;;;7.50;6.12;;;;;;;35.70;21.75;100814.16;143724;639;47000;-67
2021/07/21 13:39:43;;;;;;;8.30;5.97;;;;;;;35.66;21.87;100813.28;143727;633;48004;-66
2021/07/21 13:42:15;;;;;;;9.43;6.90;;;;;;;35.61;21.94;100817.19;143725;700;47010;-68
2021/07/21 13:44:45;;;;;;;9.82;7.12;;;;;;;35.60;22.46;100815.56;143724;581;47569;-70
2021/07/21 13:47:13;;;;;;;7.00;6.30;;;;;;;35.59;22.18;100813.16;143729;572;47002;-69
2021/07/21 13:49:45;;;;;;;10.05;6.53;;;;;;;35.57;22.83;100818.28;143728;625;48002;-70
2021/07/21 13:52:21;;;;;;;9.38;6.07;;;;;;;35.55;22.32;100812.25;143731;614;47010;-67
2021/07/21 13:54:47;;;;;;;9.20;6.45;;;;;;;35.53;22.20;100818.22;143719;645;50004;-69
2021/07/21 13:57:18;;;;;;;9.88;6.93;;;;;;;35.48;23.60;100818.53;143729;587;45924;-68
2021/07/21 13:59:47;;;;;;;9.82;7.30;;;;;;;35.47;23.70;100816.91;143727;591;49002;-70
2021/07/21 14:02:22;;;;;;;10.02;6.87;;;;;;;35.44;23.52;100815.66;143728;601;46010;-67
2021/07/21 14:04:50;;;;;;;7.97;7.18;;;;;;;35.37;24.88;100815.47;143720;600;48002;-69
2021/07/21 14:07:17;;;;;;;10.50;6.93;;;;;;;35.34;24.80;100821.78;143725;579;47002;-69
2021/07/21 14:09:45;;;;;;;11.07;7.18;;;;;;;35.30;25.33;100815.34;143728;572;47004;-70
2021/07/21 14:12:13;;;;;;;8.27;7.05;;;;;;;35.21;24.03;100816.34;143726;599;47012;-69
2021/07/21 14:14:40;;;;;;;8.10;7.30;;;;;;;35.14;24.37;100809.78;143724;620;48002;-68
2021/07/21 14:17:07;;;;;;;9.15;7.47;;;;;;;35.17;24.59;100801.50;143727;645;46004;-67
2021/07/21 14:19:34;;;;;;;9.20;7.93;;;;;;;35.10;25.54;100806.13;143723;621;49002;-69
2021/07/21 14:22:01;;;;;;;11.48;7.25;;;;;;;35.02;25.45;100802.34;143725;568;47005;-70
2021/07/21 14:24:28;;;;;;;11.07;7.00;;;;;;;34.96;24.75;100796.25;143726;591;47004;-69
2021/07/21 14:26:55;;;;;;;8.15;7.18;;;;;;;34.93;25.41;100805.31;143728;638;46011;-68
2021/07/21 14:29:22;;;;;;;14.20;7.40;;;;;;;34.96;25.88;100804.62;143728;641;48002;-69
2021/07/21 14:31:50;;;;;;;10.38;7.40;;;;;;;34.99;26.74;100805.88;143726;577;47002;-69
2021/07/21 14:34:17;;;;;;;11.05;7.62;;;;;;;34.97;28.11;100797.88;143727;602;47004;-67
2021/07/21 14:36:46;;;;;;;8.75;7.37;;;;;;;34.90;27.27;100792.91;143728;621;47009;-70
2021/07/21 14:39:15;;;;;;;7.93;7.12;;;;;;;34.85;26.57;100792.41;143729;586;47004;-68
2021/07/21 14:41:44;;;;;;;10.45;7.28;;;;;;;34.85;25.57;100800.78;143725;607;48006;-68
2021/07/21 14:44:11;;;;;;;8.52;7.28;;;;;;;34.87;25.19;100801.19;143727;577;47002;-68
2021/07/21 14:46:38;;;;;;;8.52;7.03;;;;;;;34.86;25.38;100797.59;143729;567;46002;-69
2021/07/21 14:49:06;;;;;;;9.32;8.10;;;;;;;34.72;26.14;100797.28;143730;614;47006;-69
2021/07/21 14:51:34;;;;;;;8.32;7.07;;;;;;;34.68;25.87;100794.41;143726;580;47009;-66
2021/07/21 14:54:01;;;;;;;10.90;6.97;;;;;;;34.64;26.20;100796.31;143726;582;46006;-68
2021/07/21 14:56:29;;;;;;;8.77;6.97;;;;;;;34.68;25.05;100794.41;143729;619;46002;-67
2021/07/21 14:58:56;;;;;;;9.27;7.28;;;;;;;34.69;25.86;100786.84;143729;592;47002;-69
2021/07/21 15:01:23;;;;;;;9.35;7.32;;;;;;;34.71;25.94;100788.09;143730;595;46012;-68
2021/07/21 15:03:51;;;;;;;13.00;7.65;;;;;;;34.73;25.99;100780.16;143724;606;47006;-68
2021/07/21 15:06:18;;;;;;;9.48;7.30;;;;;;;34.78;25.89;100784.66;143728;580;46002;-68